sensor_id;sensor_type;location;lat;lon;timestamp;P1;durP1;ratioP1;P2;durP2;ratioP2
15063;SDS011;7631;52.088;5.088;2023-05-01T00:00:17;1.20;;;0.93;;
15063;SDS011;7631;52.088;5.088;2023-05-01T00:02:43;1.10;;;1.00;;
15063;SDS011;7631;52.088;5.088;2023-05-01T00:05:08;0.80;;;0.80;;
15063;SDS011;7631;52.088;5.088;2023-05-01T00:07:33;1.10;;;0.97;;
15063;SDS011;7631;52.088;5.088;2023-05-01T00:09:59;1.20;;;0.80;;
15063;SDS011;7631;52.088;5.088;2023-05-01T00:12:24;0.87;;;0.83;;
15063;SDS011;7631;52.088;5.088;2023-05-01T00:14:50;1.40;;;1.00;;
15063;SDS011;7631;52.088;5.088;2023-05-01T00:17:15;2.27;;;1.10;;
15063;SDS011;7631;52.088;5.088;2023-05-01T00:19:40;1.07;;;0.97;;
15063;SDS011;7631;52.088;5.088;2023-05-01T00:22:06;1.20;;;1.10;;
15063;SDS011;7631;52.088;5.088;2023-05-01T00:24:31;1.27;;;0.97;;
15063;SDS011;7631;52.088;5.088;2023-05-01T00:26:56;0.83;;;0.80;;
15063;SDS011;7631;52.088;5.088;2023-05-01T00:29:22;1.60;;;0.80;;
15063;SDS011;7631;52.088;5.088;2023-05-01T00:31:47;1.50;;;1.00;;
15063;SDS011;7631;52.088;5.088;2023-05-01T00:34:12;1.17;;;1.07;;
15063;SDS011;7631;52.088;5.088;2023-05-01T00:36:37;1.20;;;1.10;;
15063;SDS011;7631;52.088;5.088;2023-05-01T00:39:03;1.10;;;0.93;;
15063;SDS011;7631;52.088;5.088;2023-05-01T00:41:28;1.57;;;1.07;;
15063;SDS011;7631;52.088;5.088;2023-05-01T00:43:53;1.40;;;1.10;;
15063;SDS011;7631;52.088;5.088;2023-05-01T00:46:18;1.10;;;1.00;;
15063;SDS011;7631;52.088;5.088;2023-05-01T00:48:44;1.97;;;1.10;;
15063;SDS011;7631;52.088;5.088;2023-05-01T00:51:09;1.00;;;0.90;;
15063;SDS011;7631;52.088;5.088;2023-05-01T00:53:35;1.20;;;1.10;;
15063;SDS011;7631;52.088;5.088;2023-05-01T00:56:00;1.00;;;0.90;;
15063;SDS011;7631;52.088;5.088;2023-05-01T00:58:25;1.33;;;0.93;;
15063;SDS011;7631;52.088;5.088;2023-05-01T01:00:51;1.53;;;1.00;;
15063;SDS011;7631;52.088;5.088;2023-05-01T01:03:17;1.03;;;0.93;;
15063;SDS011;7631;52.088;5.088;2023-05-01T01:05:44;1.20;;;1.10;;
15063;SDS011;7631;52.088;5.088;2023-05-01T01:13:17;0.90;;;0.80;;
15063;SDS011;7631;52.088;5.088;2023-05-01T01:18:31;2.43;;;0.97;;
15063;SDS011;7631;52.088;5.088;2023-05-01T01:21:00;1.73;;;1.20;;
15063;SDS011;7631;52.088;5.088;2023-05-01T01:25:57;1.80;;;1.30;;
15063;SDS011;7631;52.088;5.088;2023-05-01T01:31:03;2.37;;;1.30;;
15063;SDS011;7631;52.088;5.088;2023-05-01T01:36:02;1.57;;;1.10;;
15063;SDS011;7631;52.088;5.088;2023-05-01T01:38:36;2.13;;;1.40;;
15063;SDS011;7631;52.088;5.088;2023-05-01T01:41:14;1.77;;;1.20;;
15063;SDS011;7631;52.088;5.088;2023-05-01T01:43:46;1.37;;;1.10;;
15063;SDS011;7631;52.088;5.088;2023-05-01T01:46:12;1.63;;;1.20;;
15063;SDS011;7631;52.088;5.088;2023-05-01T01:48:41;1.33;;;1.23;;
15063;SDS011;7631;52.088;5.088;2023-05-01T01:51:10;1.13;;;1.00;;
15063;SDS011;7631;52.088;5.088;2023-05-01T01:53:37;2.00;;;1.20;;
15063;SDS011;7631;52.088;5.088;2023-05-01T01:56:03;1.93;;;1.27;;
15063;SDS011;7631;52.088;5.088;2023-05-01T01:58:30;1.30;;;1.20;;
15063;SDS011;7631;52.088;5.088;2023-05-01T02:00:56;1.50;;;1.03;;
15063;SDS011;7631;52.088;5.088;2023-05-01T02:03:21;0.97;;;0.93;;
15063;SDS011;7631;52.088;5.088;2023-05-01T02:05:48;1.17;;;1.03;;
15063;SDS011;7631;52.088;5.088;2023-05-01T02:08:13;1.93;;;1.23;;
15063;SDS011;7631;52.088;5.088;2023-05-01T02:10:40;1.40;;;1.20;;
15063;SDS011;7631;52.088;5.088;2023-05-01T02:13:05;1.70;;;1.30;;
15063;SDS011;7631;52.088;5.088;2023-05-01T02:15:31;1.90;;;1.20;;
15063;SDS011;7631;52.088;5.088;2023-05-01T02:17:57;1.20;;;1.10;;
15063;SDS011;7631;52.088;5.088;2023-05-01T02:20:25;1.30;;;1.20;;
15063;SDS011;7631;52.088;5.088;2023-05-01T02:22:50;1.43;;;1.33;;
15063;SDS011;7631;52.088;5.088;2023-05-01T02:25:17;1.57;;;1.23;;
15063;SDS011;7631;52.088;5.088;2023-05-01T02:27:43;1.60;;;1.40;;
15063;SDS011;7631;52.088;5.088;2023-05-01T02:30:11;1.03;;;0.90;;
15063;SDS011;7631;52.088;5.088;2023-05-01T02:32:36;2.20;;;1.40;;
15063;SDS011;7631;52.088;5.088;2023-05-01T02:35:01;1.93;;;1.20;;
15063;SDS011;7631;52.088;5.088;2023-05-01T02:37:27;1.30;;;1.07;;
15063;SDS011;7631;52.088;5.088;2023-05-01T02:39:54;1.70;;;1.30;;
15063;SDS011;7631;52.088;5.088;2023-05-01T02:42:19;1.53;;;1.43;;
15063;SDS011;7631;52.088;5.088;2023-05-01T02:44:47;1.63;;;1.27;;
15063;SDS011;7631;52.088;5.088;2023-05-01T02:47:15;2.10;;;1.50;;
15063;SDS011;7631;52.088;5.088;2023-05-01T02:49:41;1.70;;;1.40;;
15063;SDS011;7631;52.088;5.088;2023-05-01T02:52:08;1.53;;;1.30;;
15063;SDS011;7631;52.088;5.088;2023-05-01T02:54:33;1.53;;;1.43;;
15063;SDS011;7631;52.088;5.088;2023-05-01T02:56:58;2.50;;;1.57;;
15063;SDS011;7631;52.088;5.088;2023-05-01T02:59:24;1.97;;;1.33;;
15063;SDS011;7631;52.088;5.088;2023-05-01T03:01:49;1.10;;;1.00;;
15063;SDS011;7631;52.088;5.088;2023-05-01T03:04:15;2.47;;;1.43;;
15063;SDS011;7631;52.088;5.088;2023-05-01T03:06:40;1.83;;;1.20;;
15063;SDS011;7631;52.088;5.088;2023-05-01T03:09:05;2.77;;;1.50;;
15063;SDS011;7631;52.088;5.088;2023-05-01T03:11:32;1.50;;;1.23;;
15063;SDS011;7631;52.088;5.088;2023-05-01T03:13:57;2.57;;;1.50;;
15063;SDS011;7631;52.088;5.088;2023-05-01T03:16:22;1.37;;;1.07;;
15063;SDS011;7631;52.088;5.088;2023-05-01T03:18:47;1.53;;;1.43;;
15063;SDS011;7631;52.088;5.088;2023-05-01T03:21:12;1.20;;;1.10;;
15063;SDS011;7631;52.088;5.088;2023-05-01T03:23:38;1.33;;;1.20;;
15063;SDS011;7631;52.088;5.088;2023-05-01T03:26:03;2.07;;;1.33;;
15063;SDS011;7631;52.088;5.088;2023-05-01T03:28:28;1.40;;;1.30;;
15063;SDS011;7631;52.088;5.088;2023-05-01T03:30:53;1.63;;;1.30;;
15063;SDS011;7631;52.088;5.088;2023-05-01T03:33:19;1.37;;;1.10;;
15063;SDS011;7631;52.088;5.088;2023-05-01T03:35:44;2.23;;;1.57;;
15063;SDS011;7631;52.088;5.088;2023-05-01T03:38:09;1.33;;;1.23;;
15063;SDS011;7631;52.088;5.088;2023-05-01T03:40:34;2.17;;;1.47;;
15063;SDS011;7631;52.088;5.088;2023-05-01T03:42:59;1.67;;;1.27;;
15063;SDS011;7631;52.088;5.088;2023-05-01T03:45:25;1.70;;;1.23;;
15063;SDS011;7631;52.088;5.088;2023-05-01T03:47:50;1.70;;;1.20;;
15063;SDS011;7631;52.088;5.088;2023-05-01T03:50:16;1.40;;;1.30;;
15063;SDS011;7631;52.088;5.088;2023-05-01T03:52:41;1.60;;;1.20;;
15063;SDS011;7631;52.088;5.088;2023-05-01T03:55:07;2.03;;;1.30;;
15063;SDS011;7631;52.088;5.088;2023-05-01T03:57:33;1.63;;;1.33;;
15063;SDS011;7631;52.088;5.088;2023-05-01T03:59:58;1.40;;;1.30;;
15063;SDS011;7631;52.088;5.088;2023-05-01T04:02:23;1.87;;;1.30;;
15063;SDS011;7631;52.088;5.088;2023-05-01T04:04:48;1.40;;;1.20;;
15063;SDS011;7631;52.088;5.088;2023-05-01T04:07:14;1.30;;;1.20;;
15063;SDS011;7631;52.088;5.088;2023-05-01T04:09:39;3.17;;;1.40;;
15063;SDS011;7631;52.088;5.088;2023-05-01T04:12:04;3.57;;;1.27;;
15063;SDS011;7631;52.088;5.088;2023-05-01T04:14:29;2.03;;;1.37;;
15063;SDS011;7631;52.088;5.088;2023-05-01T04:16:55;1.20;;;1.00;;
15063;SDS011;7631;52.088;5.088;2023-05-01T04:19:20;1.90;;;1.50;;
15063;SDS011;7631;52.088;5.088;2023-05-01T04:21:45;2.27;;;1.33;;
15063;SDS011;7631;52.088;5.088;2023-05-01T04:24:11;2.07;;;1.50;;
15063;SDS011;7631;52.088;5.088;2023-05-01T04:26:37;1.47;;;1.37;;
15063;SDS011;7631;52.088;5.088;2023-05-01T04:29:03;1.37;;;1.27;;
15063;SDS011;7631;52.088;5.088;2023-05-01T04:31:28;1.50;;;1.40;;
15063;SDS011;7631;52.088;5.088;2023-05-01T04:33:53;1.30;;;1.20;;
15063;SDS011;7631;52.088;5.088;2023-05-01T04:36:19;2.00;;;1.20;;
15063;SDS011;7631;52.088;5.088;2023-05-01T04:38:44;1.53;;;1.23;;
15063;SDS011;7631;52.088;5.088;2023-05-01T04:41:10;1.30;;;1.17;;
15063;SDS011;7631;52.088;5.088;2023-05-01T04:43:35;2.50;;;1.27;;
15063;SDS011;7631;52.088;5.088;2023-05-01T04:46:02;1.77;;;1.30;;
15063;SDS011;7631;52.088;5.088;2023-05-01T04:48:27;2.10;;;1.23;;
15063;SDS011;7631;52.088;5.088;2023-05-01T04:50:52;2.00;;;1.33;;
15063;SDS011;7631;52.088;5.088;2023-05-01T04:53:19;2.13;;;1.40;;
15063;SDS011;7631;52.088;5.088;2023-05-01T04:55:44;1.37;;;1.27;;
15063;SDS011;7631;52.088;5.088;2023-05-01T04:58:09;1.83;;;1.30;;
15063;SDS011;7631;52.088;5.088;2023-05-01T05:00:35;2.57;;;1.50;;
15063;SDS011;7631;52.088;5.088;2023-05-01T05:03:00;1.60;;;1.40;;
15063;SDS011;7631;52.088;5.088;2023-05-01T05:05:25;2.33;;;1.57;;
15063;SDS011;7631;52.088;5.088;2023-05-01T05:07:50;1.83;;;1.30;;
15063;SDS011;7631;52.088;5.088;2023-05-01T05:10:15;1.30;;;1.20;;
15063;SDS011;7631;52.088;5.088;2023-05-01T05:12:41;1.50;;;1.30;;
15063;SDS011;7631;52.088;5.088;2023-05-01T05:15:06;1.83;;;1.40;;
15063;SDS011;7631;52.088;5.088;2023-05-01T05:17:32;1.80;;;1.40;;
15063;SDS011;7631;52.088;5.088;2023-05-01T05:19:57;1.47;;;1.37;;
15063;SDS011;7631;52.088;5.088;2023-05-01T05:22:22;3.23;;;1.50;;
15063;SDS011;7631;52.088;5.088;2023-05-01T05:24:53;2.57;;;1.50;;
15063;SDS011;7631;52.088;5.088;2023-05-01T05:27:19;1.53;;;1.40;;
15063;SDS011;7631;52.088;5.088;2023-05-01T05:29:45;2.33;;;1.53;;
15063;SDS011;7631;52.088;5.088;2023-05-01T05:32:10;1.93;;;1.40;;
15063;SDS011;7631;52.088;5.088;2023-05-01T05:34:36;1.80;;;1.57;;
15063;SDS011;7631;52.088;5.088;2023-05-01T05:37:01;1.67;;;1.40;;
15063;SDS011;7631;52.088;5.088;2023-05-01T05:39:26;2.27;;;1.70;;
15063;SDS011;7631;52.088;5.088;2023-05-01T05:41:51;2.40;;;1.50;;
15063;SDS011;7631;52.088;5.088;2023-05-01T05:44:18;2.90;;;2.07;;
15063;SDS011;7631;52.088;5.088;2023-05-01T05:46:43;2.40;;;1.60;;
15063;SDS011;7631;52.088;5.088;2023-05-01T05:49:08;2.67;;;1.57;;
15063;SDS011;7631;52.088;5.088;2023-05-01T05:51:34;2.90;;;1.50;;
15063;SDS011;7631;52.088;5.088;2023-05-01T05:53:59;1.70;;;1.60;;
15063;SDS011;7631;52.088;5.088;2023-05-01T05:56:25;2.40;;;1.50;;
15063;SDS011;7631;52.088;5.088;2023-05-01T05:58:50;2.20;;;1.57;;
15063;SDS011;7631;52.088;5.088;2023-05-01T06:01:15;1.97;;;1.50;;
15063;SDS011;7631;52.088;5.088;2023-05-01T06:03:41;2.00;;;1.80;;
15063;SDS011;7631;52.088;5.088;2023-05-01T06:06:06;1.80;;;1.60;;
15063;SDS011;7631;52.088;5.088;2023-05-01T06:08:32;2.20;;;1.43;;
15063;SDS011;7631;52.088;5.088;2023-05-01T06:10:59;1.83;;;1.40;;
15063;SDS011;7631;52.088;5.088;2023-05-01T06:13:24;1.73;;;1.40;;
15063;SDS011;7631;52.088;5.088;2023-05-01T06:15:49;1.60;;;1.50;;
15063;SDS011;7631;52.088;5.088;2023-05-01T06:18:14;2.17;;;1.70;;
15063;SDS011;7631;52.088;5.088;2023-05-01T06:20:40;1.77;;;1.47;;
15063;SDS011;7631;52.088;5.088;2023-05-01T06:23:05;2.30;;;1.77;;
15063;SDS011;7631;52.088;5.088;2023-05-01T06:25:33;2.10;;;1.60;;
15063;SDS011;7631;52.088;5.088;2023-05-01T06:27:58;2.70;;;1.83;;
15063;SDS011;7631;52.088;5.088;2023-05-01T06:30:23;2.10;;;1.57;;
15063;SDS011;7631;52.088;5.088;2023-05-01T06:32:49;1.90;;;1.60;;
15063;SDS011;7631;52.088;5.088;2023-05-01T06:35:14;2.13;;;1.80;;
15063;SDS011;7631;52.088;5.088;2023-05-01T06:37:39;1.90;;;1.70;;
15063;SDS011;7631;52.088;5.088;2023-05-01T06:40:05;2.60;;;1.97;;
15063;SDS011;7631;52.088;5.088;2023-05-01T06:42:31;1.83;;;1.70;;
15063;SDS011;7631;52.088;5.088;2023-05-01T06:44:56;2.33;;;1.80;;
15063;SDS011;7631;52.088;5.088;2023-05-01T06:47:22;2.93;;;1.60;;
15063;SDS011;7631;52.088;5.088;2023-05-01T06:49:47;1.97;;;1.77;;
15063;SDS011;7631;52.088;5.088;2023-05-01T06:52:12;2.27;;;1.80;;
15063;SDS011;7631;52.088;5.088;2023-05-01T06:54:37;2.43;;;1.83;;
15063;SDS011;7631;52.088;5.088;2023-05-01T06:57:03;2.03;;;1.83;;
15063;SDS011;7631;52.088;5.088;2023-05-01T06:59:28;2.70;;;1.90;;
15063;SDS011;7631;52.088;5.088;2023-05-01T07:01:53;2.03;;;1.67;;
15063;SDS011;7631;52.088;5.088;2023-05-01T07:04:19;2.83;;;1.97;;
15063;SDS011;7631;52.088;5.088;2023-05-01T07:06:44;2.23;;;1.83;;
15063;SDS011;7631;52.088;5.088;2023-05-01T07:09:09;1.80;;;1.43;;
15063;SDS011;7631;52.088;5.088;2023-05-01T07:11:35;2.53;;;1.80;;
15063;SDS011;7631;52.088;5.088;2023-05-01T07:14:01;1.87;;;1.60;;
15063;SDS011;7631;52.088;5.088;2023-05-01T07:16:26;2.77;;;1.97;;
15063;SDS011;7631;52.088;5.088;2023-05-01T07:18:52;2.27;;;1.60;;
15063;SDS011;7631;52.088;5.088;2023-05-01T07:21:17;2.37;;;1.70;;
15063;SDS011;7631;52.088;5.088;2023-05-01T07:23:42;2.10;;;1.90;;
15063;SDS011;7631;52.088;5.088;2023-05-01T07:26:08;2.90;;;1.53;;
15063;SDS011;7631;52.088;5.088;2023-05-01T07:28:33;2.17;;;1.93;;
15063;SDS011;7631;52.088;5.088;2023-05-01T07:30:58;4.03;;;1.90;;
15063;SDS011;7631;52.088;5.088;2023-05-01T07:33:25;2.23;;;1.50;;
15063;SDS011;7631;52.088;5.088;2023-05-01T07:35:51;3.50;;;1.87;;
15063;SDS011;7631;52.088;5.088;2023-05-01T07:38:16;2.03;;;1.60;;
15063;SDS011;7631;52.088;5.088;2023-05-01T07:40:41;2.30;;;1.70;;
15063;SDS011;7631;52.088;5.088;2023-05-01T07:43:07;2.13;;;1.93;;
15063;SDS011;7631;52.088;5.088;2023-05-01T07:45:35;2.07;;;1.50;;
15063;SDS011;7631;52.088;5.088;2023-05-01T07:48:00;2.40;;;1.70;;
15063;SDS011;7631;52.088;5.088;2023-05-01T07:50:25;3.10;;;2.00;;
15063;SDS011;7631;52.088;5.088;2023-05-01T07:52:50;2.17;;;1.60;;
15063;SDS011;7631;52.088;5.088;2023-05-01T07:55:16;2.33;;;1.67;;
15063;SDS011;7631;52.088;5.088;2023-05-01T07:57:43;2.00;;;1.80;;
15063;SDS011;7631;52.088;5.088;2023-05-01T08:00:08;1.87;;;1.67;;
15063;SDS011;7631;52.088;5.088;2023-05-01T08:02:33;2.47;;;1.60;;
15063;SDS011;7631;52.088;5.088;2023-05-01T08:04:59;1.70;;;1.53;;
15063;SDS011;7631;52.088;5.088;2023-05-01T08:07:24;2.43;;;1.77;;
15063;SDS011;7631;52.088;5.088;2023-05-01T08:09:50;1.60;;;1.50;;
15063;SDS011;7631;52.088;5.088;2023-05-01T08:12:15;2.83;;;1.80;;
15063;SDS011;7631;52.088;5.088;2023-05-01T08:14:40;3.07;;;1.93;;
15063;SDS011;7631;52.088;5.088;2023-05-01T08:17:05;2.37;;;1.57;;
15063;SDS011;7631;52.088;5.088;2023-05-01T08:19:32;2.20;;;1.70;;
15063;SDS011;7631;52.088;5.088;2023-05-01T08:21:57;2.60;;;1.60;;
15063;SDS011;7631;52.088;5.088;2023-05-01T08:24:22;1.43;;;1.33;;
15063;SDS011;7631;52.088;5.088;2023-05-01T08:26:48;1.60;;;1.47;;
15063;SDS011;7631;52.088;5.088;2023-05-01T08:29:13;1.93;;;1.53;;
15063;SDS011;7631;52.088;5.088;2023-05-01T08:31:38;2.00;;;1.40;;
15063;SDS011;7631;52.088;5.088;2023-05-01T08:34:04;2.03;;;1.80;;
15063;SDS011;7631;52.088;5.088;2023-05-01T08:36:29;3.83;;;1.83;;
15063;SDS011;7631;52.088;5.088;2023-05-01T08:38:55;2.07;;;1.77;;
15063;SDS011;7631;52.088;5.088;2023-05-01T08:41:21;1.83;;;1.47;;
15063;SDS011;7631;52.088;5.088;2023-05-01T08:43:47;1.63;;;1.40;;
15063;SDS011;7631;52.088;5.088;2023-05-01T08:46:14;2.23;;;2.00;;
15063;SDS011;7631;52.088;5.088;2023-05-01T08:48:41;1.40;;;1.30;;
15063;SDS011;7631;52.088;5.088;2023-05-01T08:51:07;2.60;;;1.80;;
15063;SDS011;7631;52.088;5.088;2023-05-01T08:53:33;1.60;;;1.50;;
15063;SDS011;7631;52.088;5.088;2023-05-01T08:55:59;2.33;;;2.03;;
15063;SDS011;7631;52.088;5.088;2023-05-01T08:58:25;2.00;;;1.67;;
15063;SDS011;7631;52.088;5.088;2023-05-01T09:00:50;2.90;;;1.53;;
15063;SDS011;7631;52.088;5.088;2023-05-01T09:03:17;2.60;;;1.83;;
15063;SDS011;7631;52.088;5.088;2023-05-01T09:05:43;2.00;;;1.80;;
15063;SDS011;7631;52.088;5.088;2023-05-01T09:08:08;2.33;;;1.67;;
15063;SDS011;7631;52.088;5.088;2023-05-01T09:10:35;2.73;;;1.80;;
15063;SDS011;7631;52.088;5.088;2023-05-01T09:13:03;2.43;;;1.40;;
15063;SDS011;7631;52.088;5.088;2023-05-01T09:15:31;2.50;;;1.70;;
15063;SDS011;7631;52.088;5.088;2023-05-01T09:17:56;2.80;;;2.10;;
15063;SDS011;7631;52.088;5.088;2023-05-01T09:20:23;1.77;;;1.60;;
15063;SDS011;7631;52.088;5.088;2023-05-01T09:22:49;1.90;;;1.70;;
15063;SDS011;7631;52.088;5.088;2023-05-01T09:25:14;2.10;;;1.80;;
15063;SDS011;7631;52.088;5.088;2023-05-01T09:27:40;2.50;;;1.60;;
15063;SDS011;7631;52.088;5.088;2023-05-01T09:30:05;2.83;;;1.90;;
15063;SDS011;7631;52.088;5.088;2023-05-01T09:32:31;2.40;;;1.70;;
15063;SDS011;7631;52.088;5.088;2023-05-01T09:35:10;2.73;;;2.00;;
15063;SDS011;7631;52.088;5.088;2023-05-01T09:37:36;2.27;;;1.87;;
15063;SDS011;7631;52.088;5.088;2023-05-01T09:42:26;2.57;;;1.77;;
15063;SDS011;7631;52.088;5.088;2023-05-01T09:44:51;2.97;;;1.83;;
15063;SDS011;7631;52.088;5.088;2023-05-01T09:47:20;3.30;;;2.43;;
15063;SDS011;7631;52.088;5.088;2023-05-01T09:49:48;3.17;;;2.10;;
15063;SDS011;7631;52.088;5.088;2023-05-01T09:52:14;2.67;;;2.10;;
15063;SDS011;7631;52.088;5.088;2023-05-01T09:54:39;2.07;;;1.90;;
15063;SDS011;7631;52.088;5.088;2023-05-01T09:57:05;3.83;;;2.17;;
15063;SDS011;7631;52.088;5.088;2023-05-01T09:59:30;3.03;;;2.20;;
15063;SDS011;7631;52.088;5.088;2023-05-01T10:01:58;3.93;;;2.07;;
15063;SDS011;7631;52.088;5.088;2023-05-01T10:04:33;2.50;;;1.80;;
15063;SDS011;7631;52.088;5.088;2023-05-01T10:07:00;2.53;;;2.00;;
15063;SDS011;7631;52.088;5.088;2023-05-01T10:09:35;2.63;;;2.07;;
15063;SDS011;7631;52.088;5.088;2023-05-01T10:12:00;2.50;;;1.97;;
15063;SDS011;7631;52.088;5.088;2023-05-01T10:14:25;2.10;;;1.57;;
15063;SDS011;7631;52.088;5.088;2023-05-01T10:16:52;2.60;;;1.87;;
15063;SDS011;7631;52.088;5.088;2023-05-01T10:19:17;2.63;;;2.13;;
15063;SDS011;7631;52.088;5.088;2023-05-01T10:21:42;4.63;;;2.23;;
15063;SDS011;7631;52.088;5.088;2023-05-01T10:24:08;2.10;;;1.70;;
15063;SDS011;7631;52.088;5.088;2023-05-01T10:26:34;2.53;;;2.00;;
15063;SDS011;7631;52.088;5.088;2023-05-01T10:29:00;2.30;;;2.10;;
15063;SDS011;7631;52.088;5.088;2023-05-01T10:31:25;4.53;;;2.70;;
15063;SDS011;7631;52.088;5.088;2023-05-01T10:33:51;2.70;;;1.90;;
15063;SDS011;7631;52.088;5.088;2023-05-01T10:36:19;2.50;;;2.30;;
15063;SDS011;7631;52.088;5.088;2023-05-01T10:38:44;2.80;;;2.30;;
15063;SDS011;7631;52.088;5.088;2023-05-01T10:41:12;3.03;;;2.00;;
15063;SDS011;7631;52.088;5.088;2023-05-01T10:43:38;2.67;;;2.40;;
15063;SDS011;7631;52.088;5.088;2023-05-01T10:53:38;2.87;;;2.40;;
15063;SDS011;7631;52.088;5.088;2023-05-01T10:56:03;2.87;;;2.47;;
15063;SDS011;7631;52.088;5.088;2023-05-01T11:03:45;4.50;;;2.77;;
15063;SDS011;7631;52.088;5.088;2023-05-01T11:06:10;2.90;;;2.60;;
15063;SDS011;7631;52.088;5.088;2023-05-01T11:08:36;4.33;;;2.67;;
15063;SDS011;7631;52.088;5.088;2023-05-01T11:14:04;4.37;;;2.70;;
15063;SDS011;7631;52.088;5.088;2023-05-01T11:19:02;3.37;;;2.60;;
15063;SDS011;7631;52.088;5.088;2023-05-01T11:21:28;4.03;;;3.00;;
15063;SDS011;7631;52.088;5.088;2023-05-01T11:23:53;2.87;;;2.40;;
15063;SDS011;7631;52.088;5.088;2023-05-01T11:26:18;4.17;;;3.17;;
15063;SDS011;7631;52.088;5.088;2023-05-01T11:28:46;3.47;;;2.60;;
15063;SDS011;7631;52.088;5.088;2023-05-01T11:31:15;3.77;;;2.50;;
15063;SDS011;7631;52.088;5.088;2023-05-01T11:33:41;4.93;;;2.83;;
15063;SDS011;7631;52.088;5.088;2023-05-01T11:36:06;3.90;;;2.70;;
15063;SDS011;7631;52.088;5.088;2023-05-01T11:38:31;3.27;;;2.97;;
15063;SDS011;7631;52.088;5.088;2023-05-01T11:40:57;4.53;;;3.10;;
15063;SDS011;7631;52.088;5.088;2023-05-01T11:43:23;3.63;;;3.07;;
15063;SDS011;7631;52.088;5.088;2023-05-01T11:45:50;3.73;;;2.93;;
15063;SDS011;7631;52.088;5.088;2023-05-01T11:48:16;4.33;;;3.27;;
15063;SDS011;7631;52.088;5.088;2023-05-01T11:50:41;4.10;;;2.80;;
15063;SDS011;7631;52.088;5.088;2023-05-01T11:53:09;3.60;;;2.67;;
15063;SDS011;7631;52.088;5.088;2023-05-01T11:55:35;3.67;;;3.03;;
15063;SDS011;7631;52.088;5.088;2023-05-01T11:58:02;4.07;;;3.00;;
15063;SDS011;7631;52.088;5.088;2023-05-01T12:00:29;3.43;;;2.60;;
15063;SDS011;7631;52.088;5.088;2023-05-01T12:02:55;3.50;;;2.63;;
15063;SDS011;7631;52.088;5.088;2023-05-01T12:05:21;4.53;;;2.67;;
15063;SDS011;7631;52.088;5.088;2023-05-01T12:07:47;2.67;;;2.33;;
15063;SDS011;7631;52.088;5.088;2023-05-01T12:10:12;3.80;;;2.83;;
15063;SDS011;7631;52.088;5.088;2023-05-01T12:12:37;3.90;;;2.80;;
15063;SDS011;7631;52.088;5.088;2023-05-01T12:15:03;3.70;;;2.93;;
15063;SDS011;7631;52.088;5.088;2023-05-01T12:17:28;4.87;;;2.87;;
15063;SDS011;7631;52.088;5.088;2023-05-01T12:19:54;3.97;;;3.07;;
15063;SDS011;7631;52.088;5.088;2023-05-01T12:22:19;2.80;;;2.60;;
15063;SDS011;7631;52.088;5.088;2023-05-01T12:24:49;2.57;;;2.30;;
15063;SDS011;7631;52.088;5.088;2023-05-01T12:27:15;4.87;;;2.97;;
15063;SDS011;7631;52.088;5.088;2023-05-01T12:29:41;3.30;;;2.73;;
15063;SDS011;7631;52.088;5.088;2023-05-01T12:32:08;3.20;;;2.70;;
15063;SDS011;7631;52.088;5.088;2023-05-01T12:34:34;3.93;;;2.57;;
15063;SDS011;7631;52.088;5.088;2023-05-01T12:36:59;3.07;;;2.73;;
15063;SDS011;7631;52.088;5.088;2023-05-01T12:39:24;3.47;;;2.90;;
15063;SDS011;7631;52.088;5.088;2023-05-01T12:41:50;4.30;;;2.77;;
15063;SDS011;7631;52.088;5.088;2023-05-01T12:47:04;3.33;;;2.63;;
15063;SDS011;7631;52.088;5.088;2023-05-01T12:49:30;4.47;;;2.67;;
15063;SDS011;7631;52.088;5.088;2023-05-01T12:51:59;3.20;;;2.70;;
15063;SDS011;7631;52.088;5.088;2023-05-01T12:54:34;3.90;;;2.33;;
15063;SDS011;7631;52.088;5.088;2023-05-01T12:57:12;2.87;;;2.40;;
15063;SDS011;7631;52.088;5.088;2023-05-01T12:59:42;3.17;;;2.77;;
15063;SDS011;7631;52.088;5.088;2023-05-01T13:02:08;5.43;;;3.00;;
15063;SDS011;7631;52.088;5.088;2023-05-01T13:04:38;5.27;;;3.33;;
15063;SDS011;7631;52.088;5.088;2023-05-01T13:07:14;5.40;;;3.57;;
15063;SDS011;7631;52.088;5.088;2023-05-01T13:09:56;2.90;;;2.47;;
15063;SDS011;7631;52.088;5.088;2023-05-01T13:12:22;4.50;;;2.87;;
15063;SDS011;7631;52.088;5.088;2023-05-01T13:14:48;3.90;;;2.60;;
15063;SDS011;7631;52.088;5.088;2023-05-01T13:17:20;3.90;;;2.70;;
15063;SDS011;7631;52.088;5.088;2023-05-01T13:19:46;4.87;;;2.87;;
15063;SDS011;7631;52.088;5.088;2023-05-01T13:22:16;3.97;;;2.77;;
15063;SDS011;7631;52.088;5.088;2023-05-01T13:24:42;3.50;;;2.70;;
15063;SDS011;7631;52.088;5.088;2023-05-01T13:27:10;3.13;;;2.80;;
15063;SDS011;7631;52.088;5.088;2023-05-01T13:29:39;5.63;;;3.00;;
15063;SDS011;7631;52.088;5.088;2023-05-01T13:32:09;4.90;;;2.73;;
15063;SDS011;7631;52.088;5.088;2023-05-01T13:34:35;5.60;;;3.10;;
15063;SDS011;7631;52.088;5.088;2023-05-01T13:37:01;3.50;;;2.90;;
15063;SDS011;7631;52.088;5.088;2023-05-01T13:39:27;5.90;;;3.40;;
15063;SDS011;7631;52.088;5.088;2023-05-01T13:41:52;4.70;;;3.10;;
15063;SDS011;7631;52.088;5.088;2023-05-01T13:44:18;4.63;;;3.10;;
15063;SDS011;7631;52.088;5.088;2023-05-01T13:46:43;4.07;;;3.40;;
15063;SDS011;7631;52.088;5.088;2023-05-01T13:49:09;4.97;;;3.17;;
15063;SDS011;7631;52.088;5.088;2023-05-01T13:51:35;4.80;;;3.07;;
15063;SDS011;7631;52.088;5.088;2023-05-01T13:54:05;3.77;;;3.20;;
15063;SDS011;7631;52.088;5.088;2023-05-01T13:56:33;5.23;;;3.03;;
15063;SDS011;7631;52.088;5.088;2023-05-01T13:58:58;4.63;;;3.20;;
15063;SDS011;7631;52.088;5.088;2023-05-01T14:01:24;5.97;;;2.90;;
15063;SDS011;7631;52.088;5.088;2023-05-01T14:03:50;3.90;;;2.93;;
15063;SDS011;7631;52.088;5.088;2023-05-01T14:06:15;4.37;;;3.10;;
15063;SDS011;7631;52.088;5.088;2023-05-01T14:08:42;3.57;;;2.90;;
15063;SDS011;7631;52.088;5.088;2023-05-01T14:11:07;4.03;;;3.10;;
15063;SDS011;7631;52.088;5.088;2023-05-01T14:13:36;5.17;;;3.20;;
15063;SDS011;7631;52.088;5.088;2023-05-01T14:16:05;4.53;;;3.30;;
15063;SDS011;7631;52.088;5.088;2023-05-01T14:18:34;4.67;;;3.53;;
15063;SDS011;7631;52.088;5.088;2023-05-01T14:21:00;4.50;;;3.00;;
15063;SDS011;7631;52.088;5.088;2023-05-01T14:23:26;3.63;;;3.10;;
15063;SDS011;7631;52.088;5.088;2023-05-01T14:25:51;4.57;;;3.10;;
15063;SDS011;7631;52.088;5.088;2023-05-01T14:28:17;3.90;;;3.33;;
15063;SDS011;7631;52.088;5.088;2023-05-01T14:30:42;3.70;;;3.37;;
15063;SDS011;7631;52.088;5.088;2023-05-01T14:33:11;5.87;;;3.53;;
15063;SDS011;7631;52.088;5.088;2023-05-01T14:35:46;3.70;;;2.90;;
15063;SDS011;7631;52.088;5.088;2023-05-01T14:38:13;5.20;;;3.33;;
15063;SDS011;7631;52.088;5.088;2023-05-01T14:40:39;4.00;;;3.00;;
15063;SDS011;7631;52.088;5.088;2023-05-01T14:43:04;4.87;;;3.17;;
15063;SDS011;7631;52.088;5.088;2023-05-01T14:45:30;3.37;;;2.97;;
15063;SDS011;7631;52.088;5.088;2023-05-01T14:47:55;4.50;;;3.40;;
15063;SDS011;7631;52.088;5.088;2023-05-01T14:50:21;3.80;;;3.40;;
15063;SDS011;7631;52.088;5.088;2023-05-01T14:52:57;4.93;;;3.50;;
15063;SDS011;7631;52.088;5.088;2023-05-01T14:55:26;3.30;;;3.00;;
15063;SDS011;7631;52.088;5.088;2023-05-01T14:57:53;6.00;;;3.90;;
15063;SDS011;7631;52.088;5.088;2023-05-01T15:00:18;4.90;;;3.80;;
15063;SDS011;7631;52.088;5.088;2023-05-01T15:02:44;4.60;;;3.27;;
15063;SDS011;7631;52.088;5.088;2023-05-01T15:05:09;3.43;;;3.13;;
15063;SDS011;7631;52.088;5.088;2023-05-01T15:07:35;3.63;;;3.23;;
15063;SDS011;7631;52.088;5.088;2023-05-01T15:10:00;4.73;;;3.60;;
15063;SDS011;7631;52.088;5.088;2023-05-01T15:12:26;4.63;;;2.90;;
15063;SDS011;7631;52.088;5.088;2023-05-01T15:14:51;4.40;;;2.87;;
15063;SDS011;7631;52.088;5.088;2023-05-01T15:17:16;3.77;;;3.17;;
15063;SDS011;7631;52.088;5.088;2023-05-01T15:19:41;4.30;;;3.07;;
15063;SDS011;7631;52.088;5.088;2023-05-01T15:22:07;4.27;;;3.20;;
15063;SDS011;7631;52.088;5.088;2023-05-01T15:24:32;4.50;;;2.77;;
15063;SDS011;7631;52.088;5.088;2023-05-01T15:26:57;3.67;;;2.93;;
15063;SDS011;7631;52.088;5.088;2023-05-01T15:29:22;5.17;;;3.57;;
15063;SDS011;7631;52.088;5.088;2023-05-01T15:31:48;4.10;;;2.87;;